Time;durP1;ratioP1;P1;durP2;ratioP2;P2;SDS_P1;SDS_P2;PMS_P1;PMS_P2;Temp;Humidity;BMP_temperature;BMP_pressure;BME280_temperature;BME280_humidity;BME280_pressure;Samples;Min_cycle;Max_cycle;Signal;HPM_P1;HPM_P2
2021/04/18 00:01:11;;;;;;;7.90;2.33;;;;;;;;;;4127873;34;20131;-84
2021/04/18 00:03:42;;;;;;;10.30;2.58;;;;;;;;;;4132039;34;20114;-83
2021/04/18 00:06:13;;;;;;;12.50;2.75;;;;;;;;;;4141729;34;20083;-83
2021/04/18 00:08:45;;;;;;;10.75;2.78;;;;;;;;;;4139355;34;20498;-84
2021/04/18 00:11:16;;;;;;;11.73;2.97;;;;;;;;;;4130052;34;20119;-84
2021/04/18 00:13:47;;;;;;;17.25;2.70;;;;;;;;;;4136418;34;20126;-84
2021/04/18 00:16:18;;;;;;;11.20;3.08;;;;;;;;;;4139924;34;20052;-84
2021/04/18 00:18:49;;;;;;;7.28;1.92;;;;;;;;;;4129284;34;20064;-84
2021/04/18 00:21:19;;;;;;;9.50;2.28;;;;;;;;;;4132939;34;20115;-84
2021/04/18 00:23:50;;;;;;;8.25;2.00;;;;;;;;;;4135788;34;20454;-84
2021/04/18 00:26:21;;;;;;;11.40;2.33;;;;;;;;;;4133851;34;20065;-83
2021/04/18 00:28:52;;;;;;;15.00;2.40;;;;;;;;;;4140245;34;20092;-83
2021/04/18 00:31:22;;;;;;;10.23;2.60;;;;;;;;;;4134779;34;20480;-83
2021/04/18 00:33:53;;;;;;;10.52;2.60;;;;;;;;;;4134641;34;20088;-84
2021/04/18 00:36:32;;;;;;;10.13;2.20;;;;;;;;;;4133868;34;20582;-84
2021/04/18 00:39:03;;;;;;;8.82;2.08;;;;;;;;;;4135412;34;20060;-83
2021/04/18 00:41:34;;;;;;;11.98;2.50;;;;;;;;;;4131072;34;20108;-84
2021/04/18 00:44:04;;;;;;;10.32;2.53;;;;;;;;;;4134339;34;20504;-84
2021/04/18 00:46:37;;;;;;;8.27;2.55;;;;;;;;;;4137484;34;20124;-83
2021/04/18 00:49:08;;;;;;;9.55;2.83;;;;;;;;;;4128084;34;20570;-84
2021/04/18 00:51:39;;;;;;;8.80;2.65;;;;;;;;;;4134074;34;20069;-83
2021/04/18 00:54:10;;;;;;;10.77;2.47;;;;;;;;;;4136380;34;20065;-83
2021/04/18 00:56:40;;;;;;;12.18;2.25;;;;;;;;;;4132013;34;20457;-83
2021/04/18 00:59:11;;;;;;;13.25;2.53;;;;;;;;;;4138230;34;20354;-84
2021/04/18 01:01:41;;;;;;;8.10;2.15;;;;;;;;;;4140178;34;20082;-83
2021/04/18 01:04:12;;;;;;;10.27;2.40;;;;;;;;;;4127286;34;20135;-84
2021/04/18 01:06:42;;;;;;;13.38;2.72;;;;;;;;;;4132755;34;20154;-84
2021/04/18 01:09:14;;;;;;;8.05;2.15;;;;;;;;;;4116961;34;20222;-83
2021/04/18 01:11:45;;;;;;;11.32;2.35;;;;;;;;;;4138121;34;20068;-84
2021/04/18 01:14:16;;;;;;;11.55;2.53;;;;;;;;;;4134053;34;20048;-84
2021/04/18 01:16:47;;;;;;;7.75;2.42;;;;;;;;;;4126276;34;20178;-83
2021/04/18 01:19:19;;;;;;;20.52;4.35;;;;;;;;;;4121964;34;20084;-83
2021/04/18 01:21:50;;;;;;;10.70;2.90;;;;;;;;;;4133114;34;20394;-83
2021/04/18 01:24:24;;;;;;;5.53;1.92;;;;;;;;;;4134906;34;20145;-84
2021/04/18 01:26:55;;;;;;;11.75;2.12;;;;;;;;;;4132526;34;20630;-84
2021/04/18 01:29:25;;;;;;;8.65;2.33;;;;;;;;;;4112148;34;20187;-84
2021/04/18 01:31:56;;;;;;;12.48;2.42;;;;;;;;;;4132006;34;20083;-83
2021/04/18 01:34:27;;;;;;;12.10;2.10;;;;;;;;;;4137058;34;20548;-83
2021/04/18 01:36:57;;;;;;;10.70;2.33;;;;;;;;;;4117721;34;20408;-84
2021/04/18 01:39:28;;;;;;;11.68;2.87;;;;;;;;;;4131830;34;20114;-84
2021/04/18 01:41:59;;;;;;;10.93;2.28;;;;;;;;;;4119246;34;20107;-83
2021/04/18 01:44:30;;;;;;;11.63;2.45;;;;;;;;;;4135503;34;20091;-84
2021/04/18 01:47:00;;;;;;;13.23;2.40;;;;;;;;;;4135515;34;21285;-83
2021/04/18 01:49:32;;;;;;;10.48;2.83;;;;;;;;;;4136134;34;20202;-83
2021/04/18 01:52:02;;;;;;;12.52;2.30;;;;;;;;;;4140176;34;20624;-84
2021/04/18 01:54:34;;;;;;;11.02;2.50;;;;;;;;;;4136618;34;20142;-83
2021/04/18 01:57:04;;;;;;;9.65;2.40;;;;;;;;;;4128144;34;20452;-84
2021/04/18 01:59:35;;;;;;;16.20;3.33;;;;;;;;;;4124634;34;20091;-83
2021/04/18 02:02:10;;;;;;;10.65;2.20;;;;;;;;;;4135914;34;20061;-83
2021/04/18 02:04:42;;;;;;;9.35;2.47;;;;;;;;;;4132232;34;20096;-84
2021/04/18 02:07:13;;;;;;;14.65;2.90;;;;;;;;;;4124324;34;20997;-84
2021/04/18 02:09:44;;;;;;;8.70;2.45;;;;;;;;;;4118005;34;20147;-83
2021/04/18 02:12:15;;;;;;;10.15;2.47;;;;;;;;;;4124608;34;20103;-83
2021/04/18 02:14:46;;;;;;;14.52;2.67;;;;;;;;;;4133434;34;20108;-83
2021/04/18 02:17:17;;;;;;;9.98;2.15;;;;;;;;;;4119221;34;20108;-83
2021/04/18 02:19:47;;;;;;;10.43;2.33;;;;;;;;;;4124130;34;20793;-84
2021/04/18 02:22:19;;;;;;;12.80;2.75;;;;;;;;;;4131066;34;20478;-83
2021/04/18 02:24:50;;;;;;;11.43;2.80;;;;;;;;;;4134790;34;20195;-83
2021/04/18 02:27:20;;;;;;;11.90;2.95;;;;;;;;;;4136331;34;20079;-84
2021/04/18 02:29:52;;;;;;;11.02;2.83;;;;;;;;;;4133851;34;20135;-83
2021/04/18 02:32:23;;;;;;;10.15;2.50;;;;;;;;;;4127582;34;20099;-83
2021/04/18 02:34:55;;;;;;;11.32;3.05;;;;;;;;;;4140149;34;20118;-83
2021/04/18 02:37:25;;;;;;;16.10;2.83;;;;;;;;;;4129029;34;20453;-83
2021/04/18 02:39:58;;;;;;;15.05;2.97;;;;;;;;;;4140460;34;20060;-83
2021/04/18 02:42:29;;;;;;;14.25;5.37;;;;;;;;;;4128101;34;20561;-83
2021/04/18 02:44:59;;;;;;;13.25;6.40;;;;;;;;;;4122638;34;20206;-83
2021/04/18 02:47:31;;;;;;;12.18;6.90;;;;;;;;;;4131939;34;20414;-83
2021/04/18 02:50:02;;;;;;;17.73;8.75;;;;;;;;;;4126731;34;20114;-83
2021/04/18 02:52:33;;;;;;;16.73;9.98;;;;;;;;;;4118080;34;20060;-84
2021/04/18 02:55:04;;;;;;;17.77;9.77;;;;;;;;;;4132577;34;20166;-83
2021/04/18 02:57:40;;;;;;;13.20;7.12;;;;;;;;;;4140753;34;20087;-85
2021/04/18 03:00:11;;;;;;;14.00;7.55;;;;;;;;;;4130076;34;20060;-84
2021/04/18 03:02:41;;;;;;;15.50;8.02;;;;;;;;;;4130253;34;20106;-83
2021/04/18 03:05:13;;;;;;;13.60;8.55;;;;;;;;;;4139628;34;20227;-84
2021/04/18 03:07:45;;;;;;;14.95;9.65;;;;;;;;;;4129598;34;20198;-84
2021/04/18 03:10:27;;;;;;;18.20;8.25;;;;;;;;;;4145186;29;20535;-94
2021/04/18 03:13:00;;;;;;;15.40;12.00;;;;;;;;;;4131021;34;20053;-92
2021/04/18 03:15:47;;;;;;;16.10;14.02;;;;;;;;;;4137673;34;20064;-94
2021/04/18 03:18:37;;;;;;;24.95;15.75;;;;;;;;;;4126184;34;20112;-93
2021/04/18 03:21:24;;;;;;;19.17;15.70;;;;;;;;;;4132407;34;20087;-92
2021/04/18 03:24:12;;;;;;;22.08;16.73;;;;;;;;;;4138593;34;20057;-95
2021/04/18 03:27:11;;;;;;;21.90;17.67;;;;;;;;;;4140935;34;20139;-92
2021/04/18 03:30:03;;;;;;;;;;;;;;;;;;4140267;34;20094;-93
2021/04/18 03:33:00;;;;;;;22.62;18.80;;;;;;;;;;4130269;34;19995;-94
2021/04/18 03:36:17;;;;;;;21.62;13.98;;;;;;;;;;4115039;34;20736;-94
2021/04/18 03:39:23;;;;;;;18.30;14.75;;;;;;;;;;4146182;34;20096;-93
2021/04/18 03:42:08;;;;;;;20.77;14.75;;;;;;;;;;4147321;34;20060;-93
2021/04/18 03:45:07;;;;;;;24.23;16.50;;;;;;;;;;4144902;34;20083;-93
2021/04/18 03:47:51;;;;;;;19.58;15.38;;;;;;;;;;4138112;34;20106;-92
2021/04/18 03:50:43;;;;;;;23.83;15.52;;;;;;;;;;4138239;34;20105;-93
2021/04/18 03:53:25;;;;;;;23.83;16.20;;;;;;;;;;4148609;34;20073;-93
2021/04/18 03:56:02;;;;;;;21.42;15.27;;;;;;;;;;4138405;34;20455;-93
2021/04/18 03:58:59;;;;;;;26.17;15.95;;;;;;;;;;4140865;34;20100;-92
2021/04/18 04:05:34;;;;;;;21.33;15.93;;;;;;;;;;4096166;34;20388;-94
2021/04/18 04:08:30;;;;;;;26.92;16.73;;;;;;;;;;4110118;34;20171;-92
2021/04/18 04:11:37;;;;;;;23.38;16.70;;;;;;;;;;4117711;34;20136;-95
2021/04/18 04:14:46;;;;;;;24.00;17.08;;;;;;;;;;4109730;34;20111;-94
2021/04/18 04:17:48;;;;;;;22.65;16.87;;;;;;;;;;4108600;34;20081;-94
2021/04/18 04:20:37;;;;;;;27.15;16.73;;;;;;;;;;4092843;35;20157;-95
2021/04/18 04:23:28;;;;;;;24.48;17.17;;;;;;;;;;4093922;34;20392;-93
2021/04/18 04:26:13;;;;;;;25.37;16.37;;;;;;;;;;4106924;34;20072;-94
2021/04/18 04:28:49;;;;;;;;;;;;;;;;;;4108440;34;20061;-93
2021/04/18 04:31:27;;;;;;;28.10;16.08;;;;;;;;;;4105371;34;20082;-94
2021/04/18 04:34:13;;;;;;;23.87;15.65;;;;;;;;;;4129881;34;20061;-94
2021/04/18 04:36:46;;;;;;;26.52;14.20;;;;;;;;;;4135324;34;20110;-93
2021/04/18 04:39:22;;;;;;;18.02;7.62;;;;;;;;;;4144166;34;20768;-94
2021/04/18 04:42:09;;;;;;;10.25;3.22;;;;;;;;;;4135264;34;20090;-93
2021/04/18 04:44:52;;;;;;;15.35;2.83;;;;;;;;;;4125644;34;20721;-94
2021/04/18 04:47:21;;;;;;;11.70;2.75;;;;;;;;;;4135506;34;20080;-94
2021/04/18 04:49:58;;;;;;;11.50;3.50;;;;;;;;;;4135717;34;20370;-93
2021/04/18 04:52:41;;;;;;;15.00;2.62;;;;;;;;;;4134300;34;20056;-94
2021/04/18 04:55:15;;;;;;;;;;;;;;;;;;4125666;34;20082;-93
2021/04/18 04:57:55;;;;;;;;;;;;;;;;;;;;;
2021/04/18 05:00:33;;;;;;;16.67;3.60;;;;;;;;;;4139436;34;20095;-93
2021/04/18 05:03:27;;;;;;;11.95;2.72;;;;;;;;;;4129763;34;20110;-93
2021/04/18 05:06:17;;;;;;;11.52;3.10;;;;;;;;;;4135922;34;20618;-93
2021/04/18 05:09:13;;;;;;;12.50;2.78;;;;;;;;;;4137121;34;20062;-93
2021/04/18 05:11:50;;;;;;;12.60;2.75;;;;;;;;;;4137857;34;20084;-93
2021/04/18 05:14:40;;;;;;;13.45;2.50;;;;;;;;;;4132050;34;20444;-93
2021/04/18 05:17:30;;;;;;;11.43;2.42;;;;;;;;;;4135594;34;20061;-94
2021/04/18 05:20:09;;;;;;;12.85;2.92;;;;;;;;;;4124275;34;20764;-95
2021/04/18 05:23:15;;;;;;;12.30;2.70;;;;;;;;;;4125941;34;20585;-94
2021/04/18 05:26:14;;;;;;;14.15;2.92;;;;;;;;;;4151869;29;20056;-85
2021/04/18 05:28:45;;;;;;;10.15;2.53;;;;;;;;;;4138420;34;20546;-86
2021/04/18 05:31:12;;;;;;;14.85;2.70;;;;;;;;;;4110953;34;20141;-85
2021/04/18 05:33:43;;;;;;;15.85;2.90;;;;;;;;;;4129467;34;20053;-83
2021/04/18 05:36:14;;;;;;;10.07;2.37;;;;;;;;;;4146979;34;20064;-84
2021/04/18 05:38:44;;;;;;;7.65;2.87;;;;;;;;;;4122060;34;20586;-84
2021/04/18 05:41:16;;;;;;;11.25;2.67;;;;;;;;;;4135771;34;20111;-85
2021/04/18 05:43:49;;;;;;;12.02;2.70;;;;;;;;;;4134145;34;20876;-84
2021/04/18 05:46:20;;;;;;;16.65;3.22;;;;;;;;;;4138888;34;20113;-84
2021/04/18 05:48:50;;;;;;;16.02;3.58;;;;;;;;;;4131385;34;20083;-86
2021/04/18 05:51:21;;;;;;;18.50;3.20;;;;;;;;;;4115281;34;20131;-84
2021/04/18 05:53:55;;;;;;;;;;;;;;;;;;4143261;34;20373;-85
2021/04/18 05:56:26;;;;;;;11.80;2.65;;;;;;;;;;4128916;34;20027;-87
2021/04/18 05:58:57;;;;;;;15.20;2.28;;;;;;;;;;4142499;34;20122;-82
2021/04/18 06:01:29;;;;;;;10.60;2.55;;;;;;;;;;4130327;34;20108;-83
2021/04/18 06:04:00;;;;;;;13.35;2.70;;;;;;;;;;4146938;34;20096;-83
2021/04/18 06:06:31;;;;;;;10.13;1.95;;;;;;;;;;4140019;34;20084;-84
2021/04/18 06:09:02;;;;;;;12.35;2.80;;;;;;;;;;4140725;34;20060;-84
2021/04/18 06:11:32;;;;;;;13.18;2.80;;;;;;;;;;4119697;34;20074;-84
2021/04/18 06:14:00;;;;;;;14.45;2.42;;;;;;;;;;4128793;34;20155;-82
2021/04/18 06:16:30;;;;;;;12.60;2.47;;;;;;;;;;4112311;34;20078;-84
2021/04/18 06:19:01;;;;;;;13.13;2.67;;;;;;;;;;4125160;34;20060;-84
2021/04/18 06:21:30;;;;;;;14.48;2.55;;;;;;;;;;4134372;34;20114;-86
2021/04/18 06:24:00;;;;;;;17.87;2.92;;;;;;;;;;4131652;34;20573;-82
2021/04/18 06:26:30;;;;;;;12.75;2.72;;;;;;;;;;4128243;34;20057;-85
2021/04/18 06:29:01;;;;;;;13.10;2.97;;;;;;;;;;4143709;34;20728;-83
2021/04/18 06:31:31;;;;;;;10.27;2.30;;;;;;;;;;4143272;34;20109;-84
2021/04/18 06:34:03;;;;;;;16.80;2.53;;;;;;;;;;4134596;34;20411;-83
2021/04/18 06:36:33;;;;;;;13.10;2.58;;;;;;;;;;4129319;34;20146;-83
2021/04/18 06:39:04;;;;;;;17.15;2.62;;;;;;;;;;4136625;34;20060;-85
2021/04/18 06:41:35;;;;;;;8.30;2.25;;;;;;;;;;4122158;34;20119;-85
2021/04/18 06:44:06;;;;;;;12.75;3.15;;;;;;;;;;4140416;34;20060;-84
2021/04/18 06:46:37;;;;;;;12.10;2.90;;;;;;;;;;4123034;34;20080;-84
2021/04/18 06:49:08;;;;;;;11.48;2.33;;;;;;;;;;4112785;34;20119;-83
2021/04/18 06:51:38;;;;;;;12.88;2.55;;;;;;;;;;4122384;34;20078;-83
2021/04/18 06:54:11;;;;;;;18.30;13.88;;;;;;;;;;4131995;34;20070;-85
2021/04/18 06:56:51;;;;;;;14.52;8.05;;;;;;;;;;4141618;34;20360;-83
2021/04/18 06:59:22;;;;;;;23.12;12.98;;;;;;;;;;4142987;34;20198;-82
2021/04/18 07:01:50;;;;;;;24.58;19.40;;;;;;;;;;4138120;34;20139;-85
2021/04/18 07:04:22;;;;;;;10.77;7.62;;;;;;;;;;4142068;34;20076;-83
2021/04/18 07:06:58;;;;;;;14.10;9.75;;;;;;;;;;4113657;34;20474;-82
2021/04/18 07:09:28;;;;;;;16.65;8.85;;;;;;;;;;4131617;34;20201;-83
2021/04/18 07:12:02;;;;;;;12.40;8.85;;;;;;;;;;4132297;34;20045;-83
2021/04/18 07:14:34;;;;;;;9.30;7.30;;;;;;;;;;4147039;34;20863;-82
2021/04/18 07:17:06;;;;;;;16.02;8.95;;;;;;;;;;4137705;34;21909;-80
2021/04/18 07:19:35;;;;;;;32.15;28.83;;;;;;;;;;4140134;34;20196;-84
2021/04/18 07:22:04;;;;;;;32.17;28.90;;;;;;;;;;4142622;34;20124;-86
2021/04/18 07:24:32;;;;;;;24.87;22.27;;;;;;;;;;4128507;34;20158;-84
2021/04/18 07:27:03;;;;;;;26.30;23.33;;;;;;;;;;4132134;34;20443;-83
2021/04/18 07:29:34;;;;;;;12.73;2.30;;;;;;;;;;4115882;34;20143;-82
2021/04/18 07:32:23;;;;;;;9.52;2.40;;;;;;;;;;4129551;34;20209;-86
2021/04/18 07:34:54;;;;;;;11.10;2.30;;;;;;;;;;4128687;34;20103;-81
2021/04/18 07:37:26;;;;;;;17.60;2.92;;;;;;;;;;4141765;34;20191;-83
2021/04/18 07:39:59;;;;;;;12.95;2.28;;;;;;;;;;4128198;34;20462;-83
2021/04/18 07:42:30;;;;;;;13.45;3.08;;;;;;;;;;4133078;34;20226;-83
2021/04/18 07:44:58;;;;;;;20.58;18.48;;;;;;;;;;4122039;34;20096;-82
2021/04/18 07:47:29;;;;;;;12.68;10.82;;;;;;;;;;4138218;34;20506;-83
2021/04/18 07:50:00;;;;;;;11.00;9.25;;;;;;;;;;4120979;34;20060;-84
2021/04/18 07:52:32;;;;;;;9.40;2.20;;;;;;;;;;4126038;34;20123;-85
2021/04/18 07:55:03;;;;;;;15.35;6.62;;;;;;;;;;4131994;34;20112;-84
2021/04/18 07:57:35;;;;;;;8.90;2.17;;;;;;;;;;4121812;34;20244;-84
2021/04/18 08:00:07;;;;;;;14.70;6.93;;;;;;;;;;4137243;34;20831;-83
2021/04/18 08:02:42;;;;;;;12.07;3.50;;;;;;;;;;4138026;34;20154;-83
2021/04/18 08:05:14;;;;;;;12.20;2.65;;;;;;;;;;4120185;34;20108;-84
2021/04/18 08:08:00;;;;;;;14.82;2.30;;;;;;;;;;4131739;34;20277;-81
2021/04/18 08:10:38;;;;;;;7.78;2.40;;;;;;;;;;4155586;34;20192;-82
2021/04/18 08:13:10;;;;;;;11.73;2.62;;;;;;;;;;4133989;34;20734;-83
2021/04/18 08:15:55;;;;;;;13.50;2.50;;;;;;;;;;4137792;34;20124;-84
2021/04/18 08:18:37;;;;;;;11.32;2.65;;;;;;;;;;4141975;34;20171;-84
2021/04/18 08:21:27;;;;;;;16.52;4.37;;;;;;;;;;4146529;34;20501;-82
2021/04/18 08:23:59;;;;;;;9.23;2.08;;;;;;;;;;4122842;34;20163;-83
2021/04/18 08:26:31;;;;;;;13.15;2.50;;;;;;;;;;4133948;34;20486;-82
2021/04/18 08:29:03;;;;;;;11.50;2.22;;;;;;;;;;4129964;34;20109;-84
2021/04/18 08:31:53;;;;;;;11.63;2.40;;;;;;;;;;4150077;34;20208;-84
2021/04/18 08:34:25;;;;;;;9.45;2.40;;;;;;;;;;4142079;34;20142;-83
2021/04/18 08:36:58;;;;;;;8.82;2.00;;;;;;;;;;4132185;34;20152;-85
2021/04/18 08:39:37;;;;;;;9.95;4.12;;;;;;;;;;4148767;34;20075;-85
2021/04/18 08:42:28;;;;;;;7.75;1.95;;;;;;;;;;4138072;34;20122;-84
2021/04/18 08:44:59;;;;;;;11.27;2.60;;;;;;;;;;4130308;34;20149;-84
2021/04/18 08:47:31;;;;;;;68.37;5.35;;;;;;;;;;4130892;34;20702;-85
2021/04/18 08:50:07;;;;;;;6.72;2.00;;;;;;;;;;4133133;34;20122;-82
2021/04/18 08:52:37;;;;;;;8.38;2.30;;;;;;;;;;4153956;34;20119;-83
2021/04/18 08:55:09;;;;;;;8.82;2.00;;;;;;;;;;4133550;34;20131;-85
2021/04/18 08:57:39;;;;;;;9.30;2.47;;;;;;;;;;4137349;34;20040;-82
2021/04/18 09:00:14;;;;;;;8.23;2.15;;;;;;;;;;4127210;34;20171;-84
2021/04/18 09:02:54;;;;;;;13.00;2.50;;;;;;;;;;4145344;34;20524;-83
2021/04/18 09:05:25;;;;;;;12.00;2.33;;;;;;;;;;4134261;34;20639;-85
2021/04/18 09:08:05;;;;;;;10.52;2.15;;;;;;;;;;4120082;34;21097;-83
2021/04/18 09:10:38;;;;;;;10.77;2.37;;;;;;;;;;4129536;34;20158;-82
2021/04/18 09:13:06;;;;;;;7.93;2.12;;;;;;;;;;4142899;34;20104;-82
2021/04/18 09:15:43;;;;;;;7.68;2.20;;;;;;;;;;4129578;34;20164;-83
2021/04/18 09:18:25;;;;;;;8.60;2.37;;;;;;;;;;4134189;34;20064;-84
2021/04/18 09:20:54;;;;;;;;;;;;;;;;;;4139974;34;20107;-83
2021/04/18 09:23:26;;;;;;;12.18;2.25;;;;;;;;;;4135738;34;20091;-84
2021/04/18 09:26:09;;;;;;;8.98;1.80;;;;;;;;;;4139540;34;20409;-85
2021/04/18 09:28:40;;;;;;;8.45;2.10;;;;;;;;;;4135919;34;20123;-83
2021/04/18 09:31:08;;;;;;;15.55;2.70;;;;;;;;;;4144879;34;20070;-82
2021/04/18 09:33:39;;;;;;;8.05;1.90;;;;;;;;;;4151028;34;20534;-84
2021/04/18 09:36:11;;;;;;;7.15;2.25;;;;;;;;;;4130454;34;20091;-82
2021/04/18 09:38:39;;;;;;;10.90;2.72;;;;;;;;;;4145433;34;20143;-85
2021/04/18 09:41:10;;;;;;;8.35;2.20;;;;;;;;;;4129289;34;20064;-82
2021/04/18 09:43:40;;;;;;;13.43;2.70;;;;;;;;;;4148157;34;20421;-81
2021/04/18 09:46:11;;;;;;;37.38;4.20;;;;;;;;;;4130597;34;20244;-82
2021/04/18 09:48:56;;;;;;;9.23;2.10;;;;;;;;;;4142785;34;20106;-82
2021/04/18 09:51:27;;;;;;;8.65;2.60;;;;;;;;;;4147748;34;20104;-83
2021/04/18 09:54:03;;;;;;;9.20;2.50;;;;;;;;;;4130546;34;20141;-83
2021/04/18 09:56:34;;;;;;;7.75;2.47;;;;;;;;;;4137498;34;20165;-85
2021/04/18 09:59:18;;;;;;;11.10;2.67;;;;;;;;;;4133733;34;20526;-86
2021/04/18 10:01:49;;;;;;;8.77;2.30;;;;;;;;;;4129284;34;20515;-81
2021/04/18 10:04:24;;;;;;;12.15;1.70;;;;;;;;;;4142860;34;20118;-81
2021/04/18 10:06:54;;;;;;;198.40;10.48;;;;;;;;;;4142746;34;20098;-84
2021/04/18 10:09:24;;;;;;;1999.90;327.30;;;;;;;;;;4148101;34;20842;-82
2021/04/18 10:12:03;;;;;;;9.45;1.95;;;;;;;;;;4140321;34;20527;-84
2021/04/18 10:14:35;;;;;;;9.93;2.40;;;;;;;;;;4117142;34;20173;-82
2021/04/18 10:17:06;;;;;;;10.73;2.60;;;;;;;;;;4150144;34;20057;-83
2021/04/18 10:19:49;;;;;;;9.27;2.30;;;;;;;;;;4126089;34;20083;-85
2021/04/18 10:22:18;;;;;;;8.30;2.05;;;;;;;;;;4130751;34;20103;-85
2021/04/18 10:24:52;;;;;;;6.97;1.95;;;;;;;;;;4142876;34;20494;-82
2021/04/18 10:27:24;;;;;;;5.90;1.73;;;;;;;;;;4146869;34;20182;-82
2021/04/18 10:29:54;;;;;;;7.20;2.05;;;;;;;;;;4152411;34;20141;-81
2021/04/18 10:32:25;;;;;;;13.00;2.17;;;;;;;;;;4134985;34;20177;-81
2021/04/18 10:34:56;;;;;;;7.97;2.25;;;;;;;;;;4142822;34;20068;-82
2021/04/18 10:37:28;;;;;;;9.10;2.40;;;;;;;;;;4138261;34;20057;-81
2021/04/18 10:39:59;;;;;;;14.68;2.50;;;;;;;;;;4137038;34;20117;-83
2021/04/18 10:42:30;;;;;;;19.92;3.30;;;;;;;;;;4138552;34;20499;-85
2021/04/18 10:45:01;;;;;;;6.90;1.90;;;;;;;;;;4136724;34;20087;-83
2021/04/18 10:47:31;;;;;;;7.82;2.10;;;;;;;;;;4151084;34;20102;-82
2021/04/18 10:50:03;;;;;;;5.85;2.00;;;;;;;;;;4137186;34;20119;-85
2021/04/18 10:52:32;;;;;;;8.25;2.20;;;;;;;;;;4148844;34;20060;-83
2021/04/18 10:55:04;;;;;;;9.63;2.53;;;;;;;;;;4153175;34;20512;-84
2021/04/18 10:57:35;;;;;;;11.20;2.20;;;;;;;;;;4148133;34;20115;-82
2021/04/18 11:00:04;;;;;;;10.13;2.35;;;;;;;;;;4132903;34;20112;-81
2021/04/18 11:02:34;;;;;;;6.70;2.15;;;;;;;;;;4147671;34;20057;-82
2021/04/18 11:05:12;;;;;;;6.85;1.95;;;;;;;;;;4144259;34;20068;-81
2021/04/18 11:07:45;;;;;;;9.43;2.15;;;;;;;;;;4153379;34;20433;-81
2021/04/18 11:10:17;;;;;;;7.30;2.20;;;;;;;;;;4143515;34;20400;-83
2021/04/18 11:12:48;;;;;;;7.75;2.25;;;;;;;;;;4129391;34;20105;-82
2021/04/18 11:15:18;;;;;;;9.63;2.40;;;;;;;;;;4156321;34;20123;-85
2021/04/18 11:17:49;;;;;;;16.75;2.42;;;;;;;;;;4133055;34;20448;-85
2021/04/18 11:20:20;;;;;;;13.68;2.87;;;;;;;;;;4135751;34;20508;-84
2021/04/18 11:22:51;;;;;;;8.32;2.45;;;;;;;;;;4117589;34;20057;-82
2021/04/18 11:25:23;;;;;;;6.80;2.10;;;;;;;;;;4150164;34;20076;-84
2021/04/18 11:27:54;;;;;;;9.75;2.70;;;;;;;;;;4155606;34;20052;-83
2021/04/18 11:30:24;;;;;;;6.82;2.28;;;;;;;;;;4150065;34;20679;-82
2021/04/18 11:32:55;;;;;;;9.85;2.50;;;;;;;;;;4125030;34;21197;-82
2021/04/18 11:35:26;;;;;;;10.35;2.15;;;;;;;;;;4155092;34;20488;-82
2021/04/18 11:37:57;;;;;;;26.20;3.40;;;;;;;;;;4156599;34;20117;-85
2021/04/18 11:40:29;;;;;;;11.00;2.65;;;;;;;;;;4136510;34;20573;-82
2021/04/18 11:43:00;;;;;;;10.23;2.47;;;;;;;;;;4140622;34;20057;-84
2021/04/18 11:45:31;;;;;;;7.45;2.22;;;;;;;;;;4140888;34;20100;-82
2021/04/18 11:48:01;;;;;;;8.75;2.30;;;;;;;;;;4138329;34;20530;-82
2021/04/18 11:50:33;;;;;;;7.68;2.20;;;;;;;;;;4138999;34;20083;-80
2021/04/18 11:53:03;;;;;;;11.12;2.35;;;;;;;;;;4151119;34;20079;-84
2021/04/18 11:55:36;;;;;;;10.23;2.33;;;;;;;;;;4157055;34;20051;-81
2021/04/18 11:58:06;;;;;;;8.48;2.30;;;;;;;;;;4151989;34;20076;-84
2021/04/18 12:00:38;;;;;;;10.57;2.35;;;;;;;;;;4139654;34;20100;-82
2021/04/18 12:03:09;;;;;;;13.07;2.72;;;;;;;;;;4151996;34;20076;-83
2021/04/18 12:05:39;;;;;;;7.10;2.37;;;;;;;;;;4156537;34;20048;-82
2021/04/18 12:08:10;;;;;;;9.57;2.42;;;;;;;;;;4139041;34;20060;-82
2021/04/18 12:10:41;;;;;;;12.18;2.40;;;;;;;;;;4134994;34;20111;-82
2021/04/18 12:13:12;;;;;;;6.93;2.33;;;;;;;;;;4135410;34;20068;-85
2021/04/18 12:15:46;;;;;;;8.45;2.10;;;;;;;;;;4152685;34;20480;-83
2021/04/18 12:18:14;;;;;;;12.65;2.33;;;;;;;;;;4140014;34;20060;-85
2021/04/18 12:20:44;;;;;;;7.85;2.22;;;;;;;;;;4150957;34;20108;-81
2021/04/18 12:23:12;;;;;;;11.52;2.60;;;;;;;;;;4154242;34;20117;-81
2021/04/18 12:25:43;;;;;;;7.78;1.85;;;;;;;;;;4149319;34;20725;-83
2021/04/18 12:28:13;;;;;;;6.25;1.90;;;;;;;;;;4135540;34;20056;-83
2021/04/18 12:30:45;;;;;;;7.18;1.98;;;;;;;;;;4152361;34;20076;-82
2021/04/18 12:33:13;;;;;;;7.40;2.20;;;;;;;;;;4124299;34;20252;-80
2021/04/18 12:35:43;;;;;;;1999.90;999.90;;;;;;;;;;4152862;34;20142;-80
2021/04/18 12:38:14;;;;;;;1999.90;999.90;;;;;;;;;;4147065;34;20457;-82
2021/04/18 12:40:45;;;;;;;1999.90;999.90;;;;;;;;;;4151971;34;20057;-81
2021/04/18 12:43:16;;;;;;;1999.90;999.90;;;;;;;;;;4151304;34;20080;-84
2021/04/18 12:45:46;;;;;;;1999.90;999.90;;;;;;;;;;4147683;34;20112;-81
2021/04/18 12:48:15;;;;;;;1999.90;999.90;;;;;;;;;;4136756;34;20380;-82
2021/04/18 12:50:46;;;;;;;1999.90;999.90;;;;;;;;;;4139975;34;20068;-83
2021/04/18 12:53:16;;;;;;;1999.90;999.90;;;;;;;;;;4137944;34;20116;-80
2021/04/18 12:55:47;;;;;;;1999.90;999.90;;;;;;;;;;4149177;34;20122;-82
2021/04/18 12:58:18;;;;;;;1999.90;999.90;;;;;;;;;;4148165;34;20506;-83
2021/04/18 13:00:48;;;;;;;1999.90;999.90;;;;;;;;;;4139242;34;20388;-85
2021/04/18 13:03:19;;;;;;;1999.90;999.90;;;;;;;;;;4150025;34;20048;-82
2021/04/18 13:05:51;;;;;;;1999.90;999.90;;;;;;;;;;4141699;34;20152;-83
2021/04/18 13:08:21;;;;;;;1999.90;999.90;;;;;;;;;;4135797;34;20221;-82
2021/04/18 13:10:52;;;;;;;1999.90;999.90;;;;;;;;;;4145700;34;20072;-82
2021/04/18 13:13:22;;;;;;;1999.90;999.90;;;;;;;;;;4144173;34;20944;-82
2021/04/18 13:15:54;;;;;;;1999.90;999.90;;;;;;;;;;4153321;34;20088;-82
2021/04/18 13:18:24;;;;;;;1999.90;999.90;;;;;;;;;;4154771;34;20119;-83
2021/04/18 13:20:55;;;;;;;1999.90;999.90;;;;;;;;;;4157786;34;20068;-81
2021/04/18 13:23:26;;;;;;;1999.90;999.90;;;;;;;;;;4150009;34;20124;-81
2021/04/18 13:25:55;;;;;;;1999.90;999.90;;;;;;;;;;4142235;34;20057;-80
2021/04/18 13:28:25;;;;;;;1999.90;999.90;;;;;;;;;;4140073;34;20181;-82
2021/04/18 13:30:55;;;;;;;1999.90;999.90;;;;;;;;;;4146781;34;20283;-82
2021/04/18 13:33:27;;;;;;;1999.90;999.90;;;;;;;;;;4149969;34;20100;-81
2021/04/18 13:35:57;;;;;;;1999.90;999.90;;;;;;;;;;4134943;34;20623;-82
2021/04/18 13:38:29;;;;;;;1999.90;999.90;;;;;;;;;;4131938;34;20196;-82
2021/04/18 13:40:59;;;;;;;1999.90;999.90;;;;;;;;;;4135817;34;20060;-82
2021/04/18 13:43:27;;;;;;;1999.90;999.90;;;;;;;;;;4135986;34;20107;-85
2021/04/18 13:45:57;;;;;;;1999.90;999.90;;;;;;;;;;4141296;34;20486;-82
2021/04/18 13:48:29;;;;;;;6.80;0.90;;;;;;;;;;4137030;34;20076;-82
2021/04/18 13:50:59;;;;;;;6.30;0.80;;;;;;;;;;4150992;34;20429;-85
2021/04/18 13:53:28;;;;;;;6.47;1.10;;;;;;;;;;4137849;34;20170;-82
2021/04/18 13:55:59;;;;;;;16.80;1.73;;;;;;;;;;4134465;34;20126;-82
2021/04/18 13:58:30;;;;;;;12.10;2.45;;;;;;;;;;4136677;34;20526;-81
2021/04/18 14:01:01;;;;;;;9.95;2.05;;;;;;;;;;4151419;34;20056;-86
2021/04/18 14:03:50;;;;;;;9.07;1.95;;;;;;;;;;4145880;34;21406;-82
2021/04/18 14:06:20;;;;;;;11.85;2.20;;;;;;;;;;4144685;34;20520;-84
2021/04/18 14:08:51;;;;;;;11.12;2.03;;;;;;;;;;4149012;34;20056;-83
2021/04/18 14:11:22;;;;;;;8.93;2.15;;;;;;;;;;4138945;34;20169;-84
2021/04/18 14:13:54;;;;;;;12.10;2.22;;;;;;;;;;4145645;34;20075;-83
2021/04/18 14:16:24;;;;;;;11.75;1.00;;;;;;;;;;4135711;34;20057;-82
2021/04/18 14:19:00;;;;;;;14.07;1.55;;;;;;;;;;4131744;34;20076;-81
2021/04/18 14:21:30;;;;;;;9.90;2.00;;;;;;;;;;4123806;34;20205;-84
2021/04/18 14:23:58;;;;;;;10.90;2.28;;;;;;;;;;4133949;34;20196;-85
2021/04/18 14:26:29;;;;;;;8.10;1.92;;;;;;;;;;4142367;34;20839;-82
2021/04/18 14:28:59;;;;;;;14.23;2.55;;;;;;;;;;4154474;34;20126;-86
2021/04/18 14:31:30;;;;;;;8.27;2.17;;;;;;;;;;4131650;34;20072;-81
2021/04/18 14:34:02;;;;;;;11.52;2.28;;;;;;;;;;4153032;34;20111;-84
2021/04/18 14:36:34;;;;;;;7.68;2.20;;;;;;;;;;4155828;34;20075;-85
2021/04/18 14:39:05;;;;;;;11.07;2.37;;;;;;;;;;4132280;34;20068;-81
2021/04/18 14:41:36;;;;;;;10.70;2.42;;;;;;;;;;4150403;34;20523;-87
2021/04/18 14:44:06;;;;;;;8.48;2.17;;;;;;;;;;4147007;34;20066;-85
2021/04/18 14:46:37;;;;;;;11.18;2.08;;;;;;;;;;4147716;34;20060;-84
2021/04/18 14:49:05;;;;;;;7.97;1.87;;;;;;;;;;4142758;34;20068;-83
2021/04/18 14:51:35;;;;;;;9.73;1.73;;;;;;;;;;4154712;34;20075;-82
2021/04/18 14:54:06;;;;;;;6.20;1.48;;;;;;;;;;4144845;34;20137;-85
2021/04/18 14:56:36;;;;;;;6.50;1.70;;;;;;;;;;4135820;34;20660;-83
2021/04/18 14:59:07;;;;;;;10.68;2.30;;;;;;;;;;4151585;34;20113;-81
2021/04/18 15:01:35;;;;;;;10.25;2.22;;;;;;;;;;4143255;34;20112;-87
2021/04/18 15:04:07;;;;;;;9.93;1.95;;;;;;;;;;4147109;34;20156;-85
2021/04/18 15:06:38;;;;;;;13.00;2.62;;;;;;;;;;4143395;34;20570;-85
2021/04/18 15:09:08;;;;;;;11.30;2.42;;;;;;;;;;4136244;34;20068;-81
2021/04/18 15:11:36;;;;;;;19.65;2.55;;;;;;;;;;4129996;34;20969;-85
2021/04/18 15:14:06;;;;;;;8.10;1.83;;;;;;;;;;4137028;34;20045;-82